Abisko, Sweden

1:35 AM CEST on October 21, 2014 (GMT +0200)
Bjornfjell 520moh | Change Station
CLOSE
Current Station
Personal Weather Station
Location: Riksgrensen, NORDLAND
Elevation: 1706 ft
Nearby Weather Stations

Elev 1706 ft 68.44 °N, 18.07 °E | Updated 5 minutes ago

Partly Cloudy
Partly Cloudy
27.3 °F
Feels Like 16 °F
N
13.0
Wind Variable Wind from East
Gusts 22.0 mph

Today
High -- | Low -- °F
--% Chance of Precip.
Yesterday
High -- | Low -- °F
Precip. -- in
8:12 AM 4:44 PM
Waning Crescent, 8% visible
Pressure 29.65 in
Visibility 6.2 miles
Clouds Few 3500 ft
Windchill 16 °F
Dew Point 25 °F
Humidity 90%
Rainfall 0.00 in
Snow Depth Not available.
UV 0 out of 12
Pollen Not available.
Air Quality Not available.
Flu Activity Not available.
METAR ENDU 202250Z 11007KT 9999 FEW035 M02/M06 Q1004

More Conditions Fewer Conditions

Pressure 29.65 in
Visibility 6.2 miles
Clouds Few 3500 ft
Windchill 16 °F
Dew Point 25 °F
Humidity 90%
Rainfall 0.00 in
Snow Depth Not available.
UV 0 out of 12
Pollen Not available.
Air Quality Not available.
Flu Activity Not available.
METAR ENDU 202250Z 11007KT 9999 FEW035 M02/M06 Q1004

More Conditions Fewer Conditions

10-Day Weather Forecast

Almanac

Astronomy

Oct. 21, 2014 Rise Set
Actual Time 8:12 AM CEST 4:44 PM CEST
Civil Twilight 7:12 AM CEST 5:44 PM CEST
Nautical Twilight 6:06 AM CEST 6:50 PM CEST
Astronomical Twilight 5:00 AM CEST 7:56 PM CEST
Moon 4:30 AM CEST (10/21) 4:26 PM CEST (10/21)
Length of Visible Light 10h 32m
Length of Day
8h 32m
Tomorrow will be 8m 14s shorter.
Waning Crescent, 8% of the Moon is Illuminated
Oct 20
Waning Crescent
Oct 23
New
Oct 30
First Quarter
Nov 6
Full
Nov 14
Last Quarter

Yesterday's Extremes

Country Highs Country Lows

Community

WunderPhotos

Upload Photos

1,763,546 photos uploaded!

WunderBlogs® & News

By Dr. Jeff Masters
Director of Meteorology, Weather Underground
By Kari Strenfel
Meteorologist, Weather Underground
By Christopher C. Burt
Weather Historian, Weather Underground
October 20, 2014
October 20, 2014
October 20, 2014

Nearby

Snow Depth

Not available.

Earthquake Activity

City Distance Mag. Time & Date
No recent earthquake activity has been reported nearby.
Minimum magnitude displayed is 2.5.

Coastal Water Temperatures

Place Temperature
No Stations Reporting

Nearby Weather Stations